sensor_id;sensor_type;location;lat;lon;timestamp;temperature;humidity
76104;HTU21D;64831;44.870;37.336;2023-10-13T00:02:00;13.30;60.99
76104;HTU21D;64831;44.870;37.336;2023-10-13T00:04:29;13.27;61.03
76104;HTU21D;64831;44.870;37.336;2023-10-13T00:06:55;13.25;61.12
76104;HTU21D;64831;44.870;37.336;2023-10-13T00:09:28;13.25;61.14
76104;HTU21D;64831;44.870;37.336;2023-10-13T00:12:05;13.23;61.10
76104;HTU21D;64831;44.870;37.336;2023-10-13T00:14:35;13.21;61.21
76104;HTU21D;64831;44.870;37.336;2023-10-13T00:17:05;13.21;61.19
76104;HTU21D;64831;44.870;37.336;2023-10-13T00:19:35;13.19;61.12
76104;HTU21D;64831;44.870;37.336;2023-10-13T00:22:10;13.16;61.19
76104;HTU21D;64831;44.870;37.336;2023-10-13T00:24:41;13.14;61.25
76104;HTU21D;64831;44.870;37.336;2023-10-13T00:27:17;13.12;61.28
76104;HTU21D;64831;44.870;37.336;2023-10-13T00:32:46;13.08;61.21
76104;HTU21D;64831;44.870;37.336;2023-10-13T00:35:28;13.06;61.27
76104;HTU21D;64831;44.870;37.336;2023-10-13T00:37:58;13.03;61.30
76104;HTU21D;64831;44.870;37.336;2023-10-13T00:40:31;13.02;61.35
76104;HTU21D;64831;44.870;37.336;2023-10-13T00:42:58;13.03;61.39
76104;HTU21D;64831;44.870;37.336;2023-10-13T00:45:46;13.01;61.31
76104;HTU21D;64831;44.870;37.336;2023-10-13T00:48:37;12.99;61.31
76104;HTU21D;64831;44.870;37.336;2023-10-13T00:51:12;12.97;61.33
76104;HTU21D;64831;44.870;37.336;2023-10-13T00:53:59;12.96;61.44
76104;HTU21D;64831;44.870;37.336;2023-10-13T00:56:28;12.94;61.41
76104;HTU21D;64831;44.870;37.336;2023-10-13T00:58:56;12.93;61.37
76104;HTU21D;64831;44.870;37.336;2023-10-13T01:01:31;12.92;61.32
76104;HTU21D;64831;44.870;37.336;2023-10-13T01:04:02;12.90;61.25
76104;HTU21D;64831;44.870;37.336;2023-10-13T01:06:30;12.90;61.29
76104;HTU21D;64831;44.870;37.336;2023-10-13T01:11:41;12.86;61.22
76104;HTU21D;64831;44.870;37.336;2023-10-13T01:14:14;12.80;61.02
76104;HTU21D;64831;44.870;37.336;2023-10-13T01:16:53;12.78;61.05
76104;HTU21D;64831;44.870;37.336;2023-10-13T01:19:20;12.75;61.01
76104;HTU21D;64831;44.870;37.336;2023-10-13T01:21:53;12.75;61.03
76104;HTU21D;64831;44.870;37.336;2023-10-13T01:24:30;12.74;60.95
76104;HTU21D;64831;44.870;37.336;2023-10-13T01:27:06;12.73;60.96
76104;HTU21D;64831;44.870;37.336;2023-10-13T01:29:50;12.72;60.81
76104;HTU21D;64831;44.870;37.336;2023-10-13T01:32:22;12.71;60.76
76104;HTU21D;64831;44.870;37.336;2023-10-13T01:34:49;12.70;60.72
76104;HTU21D;64831;44.870;37.336;2023-10-13T01:37:21;12.69;60.64
76104;HTU21D;64831;44.870;37.336;2023-10-13T01:39:48;12.67;60.59
76104;HTU21D;64831;44.870;37.336;2023-10-13T01:42:18;12.66;60.52
76104;HTU21D;64831;44.870;37.336;2023-10-13T01:44:47;12.65;60.47
76104;HTU21D;64831;44.870;37.336;2023-10-13T01:47:14;12.65;60.43
76104;HTU21D;64831;44.870;37.336;2023-10-13T01:49:42;12.63;60.38
76104;HTU21D;64831;44.870;37.336;2023-10-13T01:52:13;12.62;60.36
76104;HTU21D;64831;44.870;37.336;2023-10-13T01:54:48;12.60;60.33
76104;HTU21D;64831;44.870;37.336;2023-10-13T01:57:15;12.59;60.24
76104;HTU21D;64831;44.870;37.336;2023-10-13T01:59:46;12.58;60.19
76104;HTU21D;64831;44.870;37.336;2023-10-13T02:02:13;12.58;60.15
76104;HTU21D;64831;44.870;37.336;2023-10-13T02:04:41;12.57;60.11
76104;HTU21D;64831;44.870;37.336;2023-10-13T02:07:08;12.56;60.06
76104;HTU21D;64831;44.870;37.336;2023-10-13T02:09:34;12.53;60.07
76104;HTU21D;64831;44.870;37.336;2023-10-13T02:12:02;12.53;60.00
76104;HTU21D;64831;44.870;37.336;2023-10-13T02:14:29;12.50;59.98
76104;HTU21D;64831;44.870;37.336;2023-10-13T02:16:54;12.50;59.99
76104;HTU21D;64831;44.870;37.336;2023-10-13T02:19:38;12.51;59.99
76104;HTU21D;64831;44.870;37.336;2023-10-13T02:22:11;12.52;59.93
76104;HTU21D;64831;44.870;37.336;2023-10-13T02:24:38;12.52;59.90
76104;HTU21D;64831;44.870;37.336;2023-10-13T02:27:07;12.52;59.81
76104;HTU21D;64831;44.870;37.336;2023-10-13T02:29:40;12.51;59.83
76104;HTU21D;64831;44.870;37.336;2023-10-13T02:32:07;12.51;59.83
76104;HTU21D;64831;44.870;37.336;2023-10-13T02:34:47;12.53;59.77
76104;HTU21D;64831;44.870;37.336;2023-10-13T02:37:13;12.56;59.73
76104;HTU21D;64831;44.870;37.336;2023-10-13T02:39:40;12.57;59.67
76104;HTU21D;64831;44.870;37.336;2023-10-13T02:42:07;12.57;59.59
76104;HTU21D;64831;44.870;37.336;2023-10-13T02:44:34;12.58;59.61
76104;HTU21D;64831;44.870;37.336;2023-10-13T02:47:02;12.57;59.54
76104;HTU21D;64831;44.870;37.336;2023-10-13T02:49:39;12.57;59.60
76104;HTU21D;64831;44.870;37.336;2023-10-13T02:52:09;12.57;59.54
76104;HTU21D;64831;44.870;37.336;2023-10-13T02:54:42;12.57;59.44
76104;HTU21D;64831;44.870;37.336;2023-10-13T02:57:16;12.58;59.44
76104;HTU21D;64831;44.870;37.336;2023-10-13T02:59:43;12.58;59.50
76104;HTU21D;64831;44.870;37.336;2023-10-13T03:02:13;12.57;59.43
76104;HTU21D;64831;44.870;37.336;2023-10-13T03:04:56;12.56;59.39
76104;HTU21D;64831;44.870;37.336;2023-10-13T03:07:26;12.55;59.41
76104;HTU21D;64831;44.870;37.336;2023-10-13T03:09:58;12.57;59.53
76104;HTU21D;64831;44.870;37.336;2023-10-13T03:12:26;12.57;59.53
76104;HTU21D;64831;44.870;37.336;2023-10-13T03:14:58;12.58;59.57
76104;HTU21D;64831;44.870;37.336;2023-10-13T03:17:45;12.58;59.54
76104;HTU21D;64831;44.870;37.336;2023-10-13T03:20:16;12.59;59.45
76104;HTU21D;64831;44.870;37.336;2023-10-13T03:22:48;12.59;59.48
76104;HTU21D;64831;44.870;37.336;2023-10-13T03:25:17;12.59;59.61
76104;HTU21D;64831;44.870;37.336;2023-10-13T03:28:04;12.57;59.37
76104;HTU21D;64831;44.870;37.336;2023-10-13T03:30:31;12.56;59.40
76104;HTU21D;64831;44.870;37.336;2023-10-13T03:33:05;12.56;59.41
76104;HTU21D;64831;44.870;37.336;2023-10-13T03:35:38;12.56;59.49
76104;HTU21D;64831;44.870;37.336;2023-10-13T03:38:08;12.57;59.44
76104;HTU21D;64831;44.870;37.336;2023-10-13T03:40:49;12.58;59.41
76104;HTU21D;64831;44.870;37.336;2023-10-13T03:43:22;12.58;59.44
76104;HTU21D;64831;44.870;37.336;2023-10-13T03:45:50;12.60;59.48
76104;HTU21D;64831;44.870;37.336;2023-10-13T03:48:33;12.62;59.44
76104;HTU21D;64831;44.870;37.336;2023-10-13T03:51:06;12.64;59.44
76104;HTU21D;64831;44.870;37.336;2023-10-13T03:53:42;12.66;59.49
76104;HTU21D;64831;44.870;37.336;2023-10-13T03:56:27;12.70;59.44
76104;HTU21D;64831;44.870;37.336;2023-10-13T03:58:55;12.72;59.41
76104;HTU21D;64831;44.870;37.336;2023-10-13T04:01:30;12.76;59.36
76104;HTU21D;64831;44.870;37.336;2023-10-13T04:04:10;12.79;59.79
76104;HTU21D;64831;44.870;37.336;2023-10-13T04:06:41;12.82;60.02
76104;HTU21D;64831;44.870;37.336;2023-10-13T04:09:21;12.88;60.24
76104;HTU21D;64831;44.870;37.336;2023-10-13T04:12:01;12.94;60.07
76104;HTU21D;64831;44.870;37.336;2023-10-13T04:14:32;13.01;60.11
76104;HTU21D;64831;44.870;37.336;2023-10-13T04:17:13;13.10;60.17
76104;HTU21D;64831;44.870;37.336;2023-10-13T04:19:43;13.19;60.00
76104;HTU21D;64831;44.870;37.336;2023-10-13T04:22:42;13.35;59.90
76104;HTU21D;64831;44.870;37.336;2023-10-13T04:25:15;13.71;60.97
76104;HTU21D;64831;44.870;37.336;2023-10-13T04:28:01;14.63;62.10
76104;HTU21D;64831;44.870;37.336;2023-10-13T04:30:45;15.71;61.09
76104;HTU21D;64831;44.870;37.336;2023-10-13T04:33:26;16.84;59.77
76104;HTU21D;64831;44.870;37.336;2023-10-13T04:36:09;17.93;57.56
76104;HTU21D;64831;44.870;37.336;2023-10-13T04:38:48;18.95;55.66
76104;HTU21D;64831;44.870;37.336;2023-10-13T04:41:37;19.91;53.06
76104;HTU21D;64831;44.870;37.336;2023-10-13T04:44:24;20.73;50.87
76104;HTU21D;64831;44.870;37.336;2023-10-13T04:47:08;21.29;49.84
76104;HTU21D;64831;44.870;37.336;2023-10-13T04:49:39;21.76;47.99
76104;HTU21D;64831;44.870;37.336;2023-10-13T04:52:09;22.20;47.22
76104;HTU21D;64831;44.870;37.336;2023-10-13T04:54:36;22.66;46.19
76104;HTU21D;64831;44.870;37.336;2023-10-13T04:57:15;23.30;43.93
76104;HTU21D;64831;44.870;37.336;2023-10-13T05:00:03;23.71;43.34
76104;HTU21D;64831;44.870;37.336;2023-10-13T05:02:30;24.13;41.71
76104;HTU21D;64831;44.870;37.336;2023-10-13T05:05:08;24.43;41.13
76104;HTU21D;64831;44.870;37.336;2023-10-13T05:07:45;24.71;40.21
76104;HTU21D;64831;44.870;37.336;2023-10-13T05:10:30;25.01;39.52
76104;HTU21D;64831;44.870;37.336;2023-10-13T05:13:15;25.40;38.47
76104;HTU21D;64831;44.870;37.336;2023-10-13T05:16:00;25.63;38.23
76104;HTU21D;64831;44.870;37.336;2023-10-13T05:18:45;25.97;37.07
76104;HTU21D;64831;44.870;37.336;2023-10-13T05:21:29;26.16;36.58
76104;HTU21D;64831;44.870;37.336;2023-10-13T05:24:29;26.50;35.78
76104;HTU21D;64831;44.870;37.336;2023-10-13T05:27:13;26.80;34.34
76104;HTU21D;64831;44.870;37.336;2023-10-13T05:29:57;26.87;34.25
76104;HTU21D;64831;44.870;37.336;2023-10-13T05:32:42;27.04;33.86
76104;HTU21D;64831;44.870;37.336;2023-10-13T05:35:26;27.23;33.09
76104;HTU21D;64831;44.870;37.336;2023-10-13T05:38:11;27.34;33.05
76104;HTU21D;64831;44.870;37.336;2023-10-13T05:41:03;27.54;32.35
76104;HTU21D;64831;44.870;37.336;2023-10-13T05:43:48;27.69;31.65
76104;HTU21D;64831;44.870;37.336;2023-10-13T05:46:33;27.74;31.92
76104;HTU21D;64831;44.870;37.336;2023-10-13T05:49:07;27.94;31.58
76104;HTU21D;64831;44.870;37.336;2023-10-13T05:51:33;28.04;30.85
76104;HTU21D;64831;44.870;37.336;2023-10-13T05:54:10;28.16;30.81
76104;HTU21D;64831;44.870;37.336;2023-10-13T05:56:44;28.27;30.42
76104;HTU21D;64831;44.870;37.336;2023-10-13T05:59:29;28.34;29.84
76104;HTU21D;64831;44.870;37.336;2023-10-13T06:02:15;28.41;29.89
76104;HTU21D;64831;44.870;37.336;2023-10-13T06:05:09;28.55;29.65
76104;HTU21D;64831;44.870;37.336;2023-10-13T06:07:54;28.75;29.13
76104;HTU21D;64831;44.870;37.336;2023-10-13T06:10:40;28.88;28.85
76104;HTU21D;64831;44.870;37.336;2023-10-13T06:13:25;28.88;28.58
76104;HTU21D;64831;44.870;37.336;2023-10-13T06:16:14;28.86;28.22
76104;HTU21D;64831;44.870;37.336;2023-10-13T06:18:59;28.76;28.37
76104;HTU21D;64831;44.870;37.336;2023-10-13T06:21:43;28.87;28.46
76104;HTU21D;64831;44.870;37.336;2023-10-13T06:24:28;28.94;27.90
76104;HTU21D;64831;44.870;37.336;2023-10-13T06:27:13;29.07;28.32
76104;HTU21D;64831;44.870;37.336;2023-10-13T06:29:57;29.26;28.12
76104;HTU21D;64831;44.870;37.336;2023-10-13T06:32:23;29.34;27.32
76104;HTU21D;64831;44.870;37.336;2023-10-13T06:34:56;29.32;27.16
76104;HTU21D;64831;44.870;37.336;2023-10-13T06:37:45;29.35;27.55
76104;HTU21D;64831;44.870;37.336;2023-10-13T06:40:12;29.43;27.08
76104;HTU21D;64831;44.870;37.336;2023-10-13T06:42:59;29.61;27.42
76104;HTU21D;64831;44.870;37.336;2023-10-13T06:45:49;29.50;26.44
76104;HTU21D;64831;44.870;37.336;2023-10-13T06:48:28;29.31;27.12
76104;HTU21D;64831;44.870;37.336;2023-10-13T06:51:00;29.32;26.97
76104;HTU21D;64831;44.870;37.336;2023-10-13T06:53:47;29.47;27.08
76104;HTU21D;64831;44.870;37.336;2023-10-13T06:56:17;29.51;26.63
76104;HTU21D;64831;44.870;37.336;2023-10-13T06:58:53;29.43;26.68
76104;HTU21D;64831;44.870;37.336;2023-10-13T07:01:30;29.59;26.64
76104;HTU21D;64831;44.870;37.336;2023-10-13T07:04:07;29.50;25.89
76104;HTU21D;64831;44.870;37.336;2023-10-13T07:06:40;29.41;25.82
76104;HTU21D;64831;44.870;37.336;2023-10-13T07:09:18;29.12;25.87
76104;HTU21D;64831;44.870;37.336;2023-10-13T07:12:06;29.01;26.25
76104;HTU21D;64831;44.870;37.336;2023-10-13T07:14:33;29.12;26.20
76104;HTU21D;64831;44.870;37.336;2023-10-13T07:17:06;28.84;25.76
76104;HTU21D;64831;44.870;37.336;2023-10-13T07:19:33;28.89;26.33
76104;HTU21D;64831;44.870;37.336;2023-10-13T07:22:01;28.39;26.19
76104;HTU21D;64831;44.870;37.336;2023-10-13T07:24:46;28.43;26.61
76104;HTU21D;64831;44.870;37.336;2023-10-13T07:27:22;28.68;26.11
76104;HTU21D;64831;44.870;37.336;2023-10-13T07:29:55;28.77;26.01
76104;HTU21D;64831;44.870;37.336;2023-10-13T07:32:23;29.00;26.18
76104;HTU21D;64831;44.870;37.336;2023-10-13T07:34:53;29.27;26.02
76104;HTU21D;64831;44.870;37.336;2023-10-13T07:37:23;29.41;25.68
76104;HTU21D;64831;44.870;37.336;2023-10-13T07:39:55;29.60;25.43
76104;HTU21D;64831;44.870;37.336;2023-10-13T07:42:26;29.48;25.14
76104;HTU21D;64831;44.870;37.336;2023-10-13T07:45:06;29.49;25.22
76104;HTU21D;64831;44.870;37.336;2023-10-13T07:47:32;29.59;25.17
76104;HTU21D;64831;44.870;37.336;2023-10-13T07:49:59;29.48;25.01
76104;HTU21D;64831;44.870;37.336;2023-10-13T07:52:25;29.42;25.22
76104;HTU21D;64831;44.870;37.336;2023-10-13T07:55:06;29.57;25.42
76104;HTU21D;64831;44.870;37.336;2023-10-13T07:57:40;29.58;24.98
76104;HTU21D;64831;44.870;37.336;2023-10-13T08:00:23;29.47;25.06
76104;HTU21D;64831;44.870;37.336;2023-10-13T08:03:04;29.09;25.04
76104;HTU21D;64831;44.870;37.336;2023-10-13T08:05:43;28.53;25.47
76104;HTU21D;64831;44.870;37.336;2023-10-13T08:08:27;28.19;25.78
76104;HTU21D;64831;44.870;37.336;2023-10-13T08:11:05;28.06;26.08
76104;HTU21D;64831;44.870;37.336;2023-10-13T08:13:57;27.75;26.68
76104;HTU21D;64831;44.870;37.336;2023-10-13T08:16:29;27.29;27.00
76104;HTU21D;64831;44.870;37.336;2023-10-13T08:19:12;27.23;27.49
76104;HTU21D;64831;44.870;37.336;2023-10-13T08:21:44;27.29;27.76
76104;HTU21D;64831;44.870;37.336;2023-10-13T08:24:18;27.57;27.73
76104;HTU21D;64831;44.870;37.336;2023-10-13T08:26:53;27.23;27.97
76104;HTU21D;64831;44.870;37.336;2023-10-13T08:29:37;27.17;27.95
76104;HTU21D;64831;44.870;37.336;2023-10-13T08:32:22;27.08;28.07
76104;HTU21D;64831;44.870;37.336;2023-10-13T08:34:59;26.77;28.45
76104;HTU21D;64831;44.870;37.336;2023-10-13T08:37:34;26.75;28.83
76104;HTU21D;64831;44.870;37.336;2023-10-13T08:40:12;27.17;28.45
76104;HTU21D;64831;44.870;37.336;2023-10-13T08:43:10;27.17;28.00
76104;HTU21D;64831;44.870;37.336;2023-10-13T08:45:42;27.00;28.25
76104;HTU21D;64831;44.870;37.336;2023-10-13T08:48:10;26.96;28.24
76104;HTU21D;64831;44.870;37.336;2023-10-13T08:53:31;26.84;27.40
76104;HTU21D;64831;44.870;37.336;2023-10-13T08:55:58;26.41;28.22
76104;HTU21D;64831;44.870;37.336;2023-10-13T08:58:28;26.42;28.44
76104;HTU21D;64831;44.870;37.336;2023-10-13T09:01:12;26.33;28.82
76104;HTU21D;64831;44.870;37.336;2023-10-13T09:03:40;25.89;29.15
76104;HTU21D;64831;44.870;37.336;2023-10-13T09:06:13;25.50;29.29
76104;HTU21D;64831;44.870;37.336;2023-10-13T09:08:40;25.48;29.51
76104;HTU21D;64831;44.870;37.336;2023-10-13T09:11:33;24.99;30.22
76104;HTU21D;64831;44.870;37.336;2023-10-13T09:14:15;24.29;31.30
76104;HTU21D;64831;44.870;37.336;2023-10-13T09:17:02;24.46;31.57
76104;HTU21D;64831;44.870;37.336;2023-10-13T09:19:47;24.40;32.18
76104;HTU21D;64831;44.870;37.336;2023-10-13T09:22:23;24.14;32.70
76104;HTU21D;64831;44.870;37.336;2023-10-13T09:24:57;24.39;32.73
76104;HTU21D;64831;44.870;37.336;2023-10-13T09:27:29;24.82;32.64
76104;HTU21D;64831;44.870;37.336;2023-10-13T09:30:03;25.24;31.57
76104;HTU21D;64831;44.870;37.336;2023-10-13T09:32:47;25.08;31.67
76104;HTU21D;64831;44.870;37.336;2023-10-13T09:35:20;25.21;31.51
76104;HTU21D;64831;44.870;37.336;2023-10-13T09:37:50;25.31;31.55
76104;HTU21D;64831;44.870;37.336;2023-10-13T09:40:17;25.17;31.47
76104;HTU21D;64831;44.870;37.336;2023-10-13T09:42:59;25.16;31.49
76104;HTU21D;64831;44.870;37.336;2023-10-13T09:45:31;24.59;32.11
76104;HTU21D;64831;44.870;37.336;2023-10-13T09:48:12;24.13;32.85
76104;HTU21D;64831;44.870;37.336;2023-10-13T09:50:52;23.98;33.32
76104;HTU21D;64831;44.870;37.336;2023-10-13T09:53:22;24.00;33.18
76104;HTU21D;64831;44.870;37.336;2023-10-13T09:55:58;23.72;33.81
76104;HTU21D;64831;44.870;37.336;2023-10-13T09:58:38;23.82;33.42
76104;HTU21D;64831;44.870;37.336;2023-10-13T10:01:17;23.87;33.44
76104;HTU21D;64831;44.870;37.336;2023-10-13T10:04:09;23.81;33.76
76104;HTU21D;64831;44.870;37.336;2023-10-13T10:06:39;23.57;34.28
76104;HTU21D;64831;44.870;37.336;2023-10-13T10:09:06;23.69;34.52
76104;HTU21D;64831;44.870;37.336;2023-10-13T10:11:53;23.37;35.51
76104;HTU21D;64831;44.870;37.336;2023-10-13T10:14:40;23.11;36.18
76104;HTU21D;64831;44.870;37.336;2023-10-13T10:17:08;23.00;36.48
76104;HTU21D;64831;44.870;37.336;2023-10-13T10:19:53;23.03;36.46
76104;HTU21D;64831;44.870;37.336;2023-10-13T10:22:34;22.85;36.43
76104;HTU21D;64831;44.870;37.336;2023-10-13T10:25:05;23.08;36.05
76104;HTU21D;64831;44.870;37.336;2023-10-13T10:27:57;23.10;36.04
76104;HTU21D;64831;44.870;37.336;2023-10-13T10:30:28;23.12;36.29
76104;HTU21D;64831;44.870;37.336;2023-10-13T10:32:58;23.22;36.33
76104;HTU21D;64831;44.870;37.336;2023-10-13T10:35:32;23.14;36.24
76104;HTU21D;64831;44.870;37.336;2023-10-13T10:38:14;22.93;36.07
76104;HTU21D;64831;44.870;37.336;2023-10-13T10:40:53;22.61;36.76
76104;HTU21D;64831;44.870;37.336;2023-10-13T10:43:43;22.62;37.28
76104;HTU21D;64831;44.870;37.336;2023-10-13T10:48:42;22.46;37.50
76104;HTU21D;64831;44.870;37.336;2023-10-13T10:51:12;22.38;37.69
76104;HTU21D;64831;44.870;37.336;2023-10-13T10:53:51;22.34;37.97
76104;HTU21D;64831;44.870;37.336;2023-10-13T10:56:26;22.52;38.09
76104;HTU21D;64831;44.870;37.336;2023-10-13T10:59:04;22.40;38.38
76104;HTU21D;64831;44.870;37.336;2023-10-13T11:01:32;22.25;38.30
76104;HTU21D;64831;44.870;37.336;2023-10-13T11:04:06;22.11;38.54
76104;HTU21D;64831;44.870;37.336;2023-10-13T11:06:55;21.99;38.52
76104;HTU21D;64831;44.870;37.336;2023-10-13T11:09:26;21.85;38.15
76104;HTU21D;64831;44.870;37.336;2023-10-13T11:11:55;21.73;38.05
76104;HTU21D;64831;44.870;37.336;2023-10-13T11:14:27;21.59;38.13
76104;HTU21D;64831;44.870;37.336;2023-10-13T11:16:55;21.47;38.55
76104;HTU21D;64831;44.870;37.336;2023-10-13T11:19:42;21.47;38.94
76104;HTU21D;64831;44.870;37.336;2023-10-13T11:22:18;21.58;38.43
76104;HTU21D;64831;44.870;37.336;2023-10-13T11:25:07;21.60;38.15
76104;HTU21D;64831;44.870;37.336;2023-10-13T11:27:41;21.63;37.95
76104;HTU21D;64831;44.870;37.336;2023-10-13T11:30:17;21.58;37.86
76104;HTU21D;64831;44.870;37.336;2023-10-13T11:33:19;21.51;38.02
76104;HTU21D;64831;44.870;37.336;2023-10-13T11:35:55;21.33;38.27
76104;HTU21D;64831;44.870;37.336;2023-10-13T11:38:28;21.18;38.60
76104;HTU21D;64831;44.870;37.336;2023-10-13T11:40:58;21.11;38.62
76104;HTU21D;64831;44.870;37.336;2023-10-13T11:43:39;21.15;38.63
76104;HTU21D;64831;44.870;37.336;2023-10-13T11:46:12;21.23;38.58
76104;HTU21D;64831;44.870;37.336;2023-10-13T11:48:41;21.17;38.72
76104;HTU21D;64831;44.870;37.336;2023-10-13T11:51:09;21.06;38.81
76104;HTU21D;64831;44.870;37.336;2023-10-13T11:53:43;21.00;38.96
76104;HTU21D;64831;44.870;37.336;2023-10-13T11:56:10;21.00;39.25
76104;HTU21D;64831;44.870;37.336;2023-10-13T11:58:37;21.01;39.20
76104;HTU21D;64831;44.870;37.336;2023-10-13T12:01:03;20.89;39.88
76104;HTU21D;64831;44.870;37.336;2023-10-13T12:03:42;20.81;39.63
76104;HTU21D;64831;44.870;37.336;2023-10-13T12:06:28;20.90;39.53
76104;HTU21D;64831;44.870;37.336;2023-10-13T12:09:10;20.92;38.85
76104;HTU21D;64831;44.870;37.336;2023-10-13T12:11:49;21.03;38.44
76104;HTU21D;64831;44.870;37.336;2023-10-13T12:14:20;21.06;38.09
76104;HTU21D;64831;44.870;37.336;2023-10-13T12:16:57;21.08;37.85
76104;HTU21D;64831;44.870;37.336;2023-10-13T12:19:30;21.13;37.67
76104;HTU21D;64831;44.870;37.336;2023-10-13T12:21:56;21.16;37.68
76104;HTU21D;64831;44.870;37.336;2023-10-13T12:24:24;21.16;38.10
76104;HTU21D;64831;44.870;37.336;2023-10-13T12:27:02;21.11;38.46
76104;HTU21D;64831;44.870;37.336;2023-10-13T12:29:48;21.06;38.85
76104;HTU21D;64831;44.870;37.336;2023-10-13T12:32:14;20.89;39.22
76104;HTU21D;64831;44.870;37.336;2023-10-13T12:34:46;20.87;39.43
76104;HTU21D;64831;44.870;37.336;2023-10-13T12:37:31;20.87;39.55
76104;HTU21D;64831;44.870;37.336;2023-10-13T12:40:14;20.85;39.77
76104;HTU21D;64831;44.870;37.336;2023-10-13T12:42:59;20.77;40.41
76104;HTU21D;64831;44.870;37.336;2023-10-13T12:45:44;20.76;40.10
76104;HTU21D;64831;44.870;37.336;2023-10-13T12:48:30;20.70;40.53
76104;HTU21D;64831;44.870;37.336;2023-10-13T12:51:15;20.63;40.96
76104;HTU21D;64831;44.870;37.336;2023-10-13T12:53:53;20.63;41.11
76104;HTU21D;64831;44.870;37.336;2023-10-13T12:56:20;20.55;41.69
76104;HTU21D;64831;44.870;37.336;2023-10-13T12:58:55;20.44;41.86
76104;HTU21D;64831;44.870;37.336;2023-10-13T13:01:22;20.31;42.27
76104;HTU21D;64831;44.870;37.336;2023-10-13T13:03:50;19.94;43.64
76104;HTU21D;64831;44.870;37.336;2023-10-13T13:06:22;19.73;43.67
76104;HTU21D;64831;44.870;37.336;2023-10-13T13:08:52;19.66;43.76
76104;HTU21D;64831;44.870;37.336;2023-10-13T13:11:18;19.53;44.02
76104;HTU21D;64831;44.870;37.336;2023-10-13T13:13:44;19.43;44.33
76104;HTU21D;64831;44.870;37.336;2023-10-13T13:16:14;19.39;44.64
76104;HTU21D;64831;44.870;37.336;2023-10-13T13:18:40;19.39;44.70
76104;HTU21D;64831;44.870;37.336;2023-10-13T13:21:05;19.36;45.04
76104;HTU21D;64831;44.870;37.336;2023-10-13T13:23:32;19.38;45.22
76104;HTU21D;64831;44.870;37.336;2023-10-13T13:26:00;19.39;45.56
76104;HTU21D;64831;44.870;37.336;2023-10-13T13:28:26;19.37;45.83
76104;HTU21D;64831;44.870;37.336;2023-10-13T13:30:55;19.33;45.73
76104;HTU21D;64831;44.870;37.336;2023-10-13T13:33:21;19.35;45.73
76104;HTU21D;64831;44.870;37.336;2023-10-13T13:35:55;19.35;45.83
76104;HTU21D;64831;44.870;37.336;2023-10-13T13:38:21;19.32;46.86
76104;HTU21D;64831;44.870;37.336;2023-10-13T13:40:53;19.28;46.31
76104;HTU21D;64831;44.870;37.336;2023-10-13T13:43:22;19.21;46.42
76104;HTU21D;64831;44.870;37.336;2023-10-13T13:46:06;19.13;46.28
76104;HTU21D;64831;44.870;37.336;2023-10-13T13:48:39;19.09;46.22
76104;HTU21D;64831;44.870;37.336;2023-10-13T13:51:07;19.06;45.96
76104;HTU21D;64831;44.870;37.336;2023-10-13T13:53:41;19.00;45.92
76104;HTU21D;64831;44.870;37.336;2023-10-13T13:56:14;18.99;45.85
76104;HTU21D;64831;44.870;37.336;2023-10-13T13:58:50;18.97;45.57
76104;HTU21D;64831;44.870;37.336;2023-10-13T14:01:16;18.92;45.56
76104;HTU21D;64831;44.870;37.336;2023-10-13T14:03:48;18.84;45.58
76104;HTU21D;64831;44.870;37.336;2023-10-13T14:06:20;18.78;45.94
76104;HTU21D;64831;44.870;37.336;2023-10-13T14:08:50;18.74;45.89
76104;HTU21D;64831;44.870;37.336;2023-10-13T14:11:21;18.66;46.27
76104;HTU21D;64831;44.870;37.336;2023-10-13T14:14:09;18.63;46.06
76104;HTU21D;64831;44.870;37.336;2023-10-13T14:16:42;18.56;46.13
76104;HTU21D;64831;44.870;37.336;2023-10-13T14:19:16;18.49;46.07
76104;HTU21D;64831;44.870;37.336;2023-10-13T14:21:46;18.42;46.11
76104;HTU21D;64831;44.870;37.336;2023-10-13T14:24:19;18.34;46.17
76104;HTU21D;64831;44.870;37.336;2023-10-13T14:27:02;18.27;46.11
76104;HTU21D;64831;44.870;37.336;2023-10-13T14:29:38;18.22;46.06
76104;HTU21D;64831;44.870;37.336;2023-10-13T14:32:08;18.19;46.04
76104;HTU21D;64831;44.870;37.336;2023-10-13T14:34:44;18.18;45.90
76104;HTU21D;64831;44.870;37.336;2023-10-13T14:37:23;18.13;45.81
76104;HTU21D;64831;44.870;37.336;2023-10-13T14:39:54;18.10;45.80
76104;HTU21D;64831;44.870;37.336;2023-10-13T14:42:27;18.08;45.80
76104;HTU21D;64831;44.870;37.336;2023-10-13T14:44:54;18.05;45.87
76104;HTU21D;64831;44.870;37.336;2023-10-13T14:47:24;18.02;45.89
76104;HTU21D;64831;44.870;37.336;2023-10-13T14:49:53;17.96;46.22
76104;HTU21D;64831;44.870;37.336;2023-10-13T14:52:25;17.89;46.42
76104;HTU21D;64831;44.870;37.336;2023-10-13T14:54:51;17.83;46.83
76104;HTU21D;64831;44.870;37.336;2023-10-13T14:57:23;17.77;46.99
76104;HTU21D;64831;44.870;37.336;2023-10-13T14:59:53;17.72;47.19
76104;HTU21D;64831;44.870;37.336;2023-10-13T15:02:20;17.67;47.38
76104;HTU21D;64831;44.870;37.336;2023-10-13T15:04:49;17.64;47.38
76104;HTU21D;64831;44.870;37.336;2023-10-13T15:07:16;17.61;47.35
76104;HTU21D;64831;44.870;37.336;2023-10-13T15:09:43;17.54;47.43
76104;HTU21D;64831;44.870;37.336;2023-10-13T15:12:10;17.50;47.56
76104;HTU21D;64831;44.870;37.336;2023-10-13T15:14:40;17.47;47.72
76104;HTU21D;64831;44.870;37.336;2023-10-13T15:17:10;17.43;47.70
76104;HTU21D;64831;44.870;37.336;2023-10-13T15:19:36;17.37;47.91
76104;HTU21D;64831;44.870;37.336;2023-10-13T15:22:05;17.34;48.02
76104;HTU21D;64831;44.870;37.336;2023-10-13T15:24:38;17.30;48.09
76104;HTU21D;64831;44.870;37.336;2023-10-13T15:27:25;17.28;48.14
76104;HTU21D;64831;44.870;37.336;2023-10-13T15:29:54;17.23;48.31
76104;HTU21D;64831;44.870;37.336;2023-10-13T15:32:20;17.22;48.38
76104;HTU21D;64831;44.870;37.336;2023-10-13T15:35:05;17.19;48.50
76104;HTU21D;64831;44.870;37.336;2023-10-13T15:37:31;17.14;48.66
76104;HTU21D;64831;44.870;37.336;2023-10-13T15:39:57;17.09;48.76
76104;HTU21D;64831;44.870;37.336;2023-10-13T15:42:29;17.07;49.08
76104;HTU21D;64831;44.870;37.336;2023-10-13T15:44:55;17.03;49.33
76104;HTU21D;64831;44.870;37.336;2023-10-13T15:47:21;17.01;49.39
76104;HTU21D;64831;44.870;37.336;2023-10-13T15:49:56;17.00;49.53
76104;HTU21D;64831;44.870;37.336;2023-10-13T15:52:43;16.98;49.56
76104;HTU21D;64831;44.870;37.336;2023-10-13T15:55:52;16.95;50.16
76104;HTU21D;64831;44.870;37.336;2023-10-13T15:58:41;16.89;50.07
76104;HTU21D;64831;44.870;37.336;2023-10-13T16:01:51;16.82;50.37
76104;HTU21D;64831;44.870;37.336;2023-10-13T16:04:58;16.76;50.63